createdAt,value
2019-03-21T00:00:04.830Z,999.84
2019-03-21T00:01:04.823Z,999.86
2019-03-21T00:02:04.801Z,999.79
2019-03-21T00:03:04.864Z,999.82
2019-03-21T00:04:05.811Z,999.79
2019-03-21T00:05:04.809Z,999.88
2019-03-21T00:06:04.759Z,999.85
2019-03-21T00:07:04.748Z,999.82
2019-03-21T00:08:04.740Z,999.84
2019-03-21T00:09:04.727Z,999.84
2019-03-21T00:10:04.727Z,999.82
2019-03-21T00:11:04.740Z,999.80
2019-03-21T00:12:04.689Z,999.86
2019-03-21T00:13:04.678Z,999.85
2019-03-21T00:14:07.184Z,999.85
2019-03-21T00:15:04.773Z,999.83
2019-03-21T00:16:04.646Z,999.87
2019-03-21T00:17:04.677Z,999.84
2019-03-21T00:18:04.629Z,999.83
2019-03-21T00:19:04.620Z,999.88
2019-03-21T00:20:04.599Z,999.91
2019-03-21T00:21:04.599Z,999.88
2019-03-21T00:22:04.586Z,999.91
2019-03-21T00:23:04.584Z,999.83
2019-03-21T00:24:04.568Z,999.82
2019-03-21T00:25:04.667Z,999.84
2019-03-21T00:26:05.271Z,999.83
2019-03-21T00:27:05.249Z,999.83
2019-03-21T00:28:04.766Z,999.85
2019-03-21T00:29:04.559Z,999.92
2019-03-21T00:30:16.831Z,999.93
2019-03-21T00:31:04.496Z,999.93
2019-03-21T00:32:04.474Z,999.99
2019-03-21T00:33:04.483Z,1000.02
2019-03-21T00:34:04.495Z,999.97
2019-03-21T00:35:04.473Z,999.98
2019-03-21T00:36:04.438Z,999.90
2019-03-21T00:37:04.468Z,999.97
2019-03-21T00:38:04.412Z,999.95
2019-03-21T00:39:04.402Z,1000.02
2019-03-21T00:40:04.416Z,1000.11
2019-03-21T00:41:04.375Z,1000.02
2019-03-21T00:42:04.360Z,1000.07
2019-03-21T00:43:04.356Z,1000.07
2019-03-21T00:44:04.340Z,1000.14
2019-03-21T00:45:04.349Z,1000.10
2019-03-21T00:46:04.350Z,1000.07
2019-03-21T00:47:04.443Z,1000.11
2019-03-21T00:48:04.339Z,1000.10
2019-03-21T00:49:04.319Z,1000.13
2019-03-21T00:50:04.295Z,1000.10
2019-03-21T00:51:04.259Z,1000.14
2019-03-21T00:52:04.255Z,1000.11
2019-03-21T00:53:04.241Z,1000.12
2019-03-21T00:54:04.230Z,1000.14
2019-03-21T00:55:04.221Z,1000.08
2019-03-21T00:56:04.248Z,1000.07
2019-03-21T00:57:04.202Z,1000.08
2019-03-21T00:58:04.186Z,1000.05
2019-03-21T00:59:04.203Z,1000.07
2019-03-21T01:00:04.163Z,1000.10
2019-03-21T01:01:17.328Z,1000.01
2019-03-21T01:02:04.144Z,1000.06
2019-03-21T01:03:04.142Z,1000.04
2019-03-21T01:04:04.126Z,1000.04
2019-03-21T01:05:04.137Z,1000.01
2019-03-21T01:06:04.154Z,1000.05
2019-03-21T01:07:04.089Z,1000.07
2019-03-21T01:08:04.081Z,999.99
2019-03-21T01:09:04.072Z,1000.12
2019-03-21T01:10:04.055Z,1000.08
2019-03-21T01:11:04.097Z,1000.06
2019-03-21T01:12:04.315Z,1000.12
2019-03-21T01:13:04.026Z,1000.03
2019-03-21T01:14:04.009Z,999.97
2019-03-21T01:15:04.012Z,999.99
2019-03-21T01:16:03.990Z,1000.09
2019-03-21T01:17:03.981Z,1000.03
2019-03-21T01:18:03.979Z,999.98
2019-03-21T01:19:03.967Z,1000.07
2019-03-21T01:20:03.945Z,1000.06
2019-03-21T01:21:03.946Z,1000.02
2019-03-21T01:22:03.923Z,1000.10
2019-03-21T01:23:03.956Z,1000.11
2019-03-21T01:24:03.904Z,1000.10
2019-03-21T01:25:03.893Z,1000.09
2019-03-21T01:26:03.881Z,1000.06
2019-03-21T01:27:03.875Z,1000.11
2019-03-21T01:28:03.858Z,1000.09
2019-03-21T01:29:03.881Z,1000.11
2019-03-21T01:30:03.841Z,1000.08
2019-03-21T01:31:03.833Z,1000.07
2019-03-21T01:32:14.108Z,1000.15
2019-03-21T01:33:03.808Z,1000.08
2019-03-21T01:34:03.799Z,1000.13
2019-03-21T01:35:03.827Z,1000.13
2019-03-21T01:36:03.786Z,1000.10
2019-03-21T01:37:03.765Z,1000.10
2019-03-21T01:38:03.755Z,1000.17
2019-03-21T01:39:03.749Z,1000.16
2019-03-21T01:40:03.745Z,1000.18
2019-03-21T01:41:03.805Z,1000.20
2019-03-21T01:42:03.715Z,1000.31
2019-03-21T01:43:03.706Z,1000.29
2019-03-21T01:44:03.728Z,1000.24
2019-03-21T01:45:03.697Z,1000.27
2019-03-21T01:46:03.705Z,1000.24
2019-03-21T01:47:03.702Z,1000.22
2019-03-21T01:48:03.660Z,1000.21
2019-03-21T01:49:03.638Z,1000.28
2019-03-21T01:50:03.643Z,1000.22
2019-03-21T01:51:03.620Z,1000.28
2019-03-21T01:52:03.603Z,1000.29
2019-03-21T01:53:03.623Z,1000.22
2019-03-21T01:54:03.596Z,1000.30
2019-03-21T01:55:03.576Z,1000.30
2019-03-21T01:56:03.574Z,1000.31
2019-03-21T01:57:03.622Z,1000.26
2019-03-21T01:58:03.544Z,1000.26
2019-03-21T01:59:03.545Z,1000.31
2019-03-21T02:00:03.542Z,1000.32
2019-03-21T02:01:03.512Z,1000.33
2019-03-21T02:02:03.505Z,1000.30
2019-03-21T02:03:16.407Z,1000.32
2019-03-21T02:04:03.491Z,1000.33
2019-03-21T02:05:03.489Z,1000.32
2019-03-21T02:06:03.479Z,1000.28
2019-03-21T02:07:03.488Z,1000.31
2019-03-21T02:08:03.441Z,1000.29
2019-03-21T02:09:03.437Z,1000.33
2019-03-21T02:10:03.426Z,1000.35
2019-03-21T02:11:03.423Z,1000.35
2019-03-21T02:12:03.412Z,1000.40
2019-03-21T02:13:03.442Z,1000.36
2019-03-21T02:14:03.404Z,1000.32
2019-03-21T02:15:03.387Z,1000.33
2019-03-21T02:16:03.376Z,1000.33
2019-03-21T02:17:03.397Z,1000.33
2019-03-21T02:18:03.361Z,1000.32
2019-03-21T02:19:03.322Z,1000.31
2019-03-21T02:20:03.355Z,1000.31
2019-03-21T02:21:03.298Z,1000.34
2019-03-21T02:22:03.288Z,1000.37
2019-03-21T02:23:03.276Z,1000.31
2019-03-21T02:24:03.267Z,1000.33
2019-03-21T02:25:03.259Z,1000.38
2019-03-21T02:26:03.259Z,1000.31
2019-03-21T02:27:03.242Z,1000.32
2019-03-21T02:28:03.240Z,1000.30
2019-03-21T02:29:03.218Z,1000.28
2019-03-21T02:30:03.206Z,1000.23
2019-03-21T02:31:03.231Z,1000.29
2019-03-21T02:32:03.181Z,1000.34
2019-03-21T02:33:03.189Z,1000.26
2019-03-21T02:34:15.750Z,1000.34
2019-03-21T02:35:03.153Z,1000.32
2019-03-21T02:36:03.182Z,1000.39
2019-03-21T02:37:03.136Z,1000.32
2019-03-21T02:38:03.237Z,1000.40
2019-03-21T02:39:03.157Z,1000.42
2019-03-21T02:40:03.140Z,1000.50
2019-03-21T02:41:03.088Z,1000.36
2019-03-21T02:42:03.115Z,1000.50
2019-03-21T02:43:03.060Z,1000.47
2019-03-21T02:44:03.055Z,1000.42
2019-03-21T02:45:09.080Z,1000.50
2019-03-21T02:46:04.063Z,1000.56
2019-03-21T02:47:03.040Z,1000.46
2019-03-21T02:48:03.053Z,1000.43
2019-03-21T02:49:03.001Z,1000.50
2019-03-21T02:50:02.991Z,1000.42
2019-03-21T02:51:02.984Z,1000.40
2019-03-21T02:52:02.969Z,1000.45
2019-03-21T02:53:02.950Z,1000.46
2019-03-21T02:54:02.989Z,1000.49
2019-03-21T02:55:02.951Z,1000.57
2019-03-21T02:56:02.923Z,1000.57
2019-03-21T02:57:02.917Z,1000.68
2019-03-21T02:58:02.901Z,1000.69
2019-03-21T02:59:02.906Z,1000.66
2019-03-21T03:00:02.930Z,1000.73
2019-03-21T03:01:02.873Z,1000.76
2019-03-21T03:02:02.943Z,1000.70
2019-03-21T03:03:02.949Z,1000.71
2019-03-21T03:04:02.840Z,1000.68
2019-03-21T03:05:16.435Z,1000.61
2019-03-21T03:06:02.829Z,1000.69
2019-03-21T03:07:02.831Z,1000.67
2019-03-21T03:08:02.800Z,1000.77
2019-03-21T03:09:02.785Z,1000.76
2019-03-21T03:10:02.820Z,1000.82
2019-03-21T03:11:02.790Z,1000.77
2019-03-21T03:12:02.770Z,1000.80
2019-03-21T03:13:02.744Z,1000.75
2019-03-21T03:14:04.495Z,1000.73
2019-03-21T03:15:02.743Z,1000.78
2019-03-21T03:16:02.722Z,1000.80
2019-03-21T03:17:02.709Z,1000.88
2019-03-21T03:18:02.695Z,1000.86
2019-03-21T03:19:02.702Z,1000.81
2019-03-21T03:20:02.665Z,1000.86
2019-03-21T03:21:02.695Z,1000.81
2019-03-21T03:22:02.691Z,1000.83
2019-03-21T03:23:02.635Z,1000.79
2019-03-21T03:24:02.717Z,1000.70
2019-03-21T03:25:02.698Z,1000.77
2019-03-21T03:26:02.643Z,1000.77
2019-03-21T03:27:02.609Z,1000.82
2019-03-21T03:28:02.628Z,1000.75
2019-03-21T03:29:02.568Z,1000.83
2019-03-21T03:30:02.594Z,1000.76
2019-03-21T03:31:02.552Z,1000.80
2019-03-21T03:32:02.538Z,1000.81
2019-03-21T03:33:02.527Z,1000.87
2019-03-21T03:34:02.528Z,1000.83
2019-03-21T03:35:02.506Z,1000.94
2019-03-21T03:36:15.549Z,1000.82
2019-03-21T03:37:02.502Z,1000.85
2019-03-21T03:38:02.481Z,1000.90
2019-03-21T03:39:02.502Z,1000.89
2019-03-21T03:40:02.450Z,1000.90
2019-03-21T03:41:02.460Z,1000.93
2019-03-21T03:42:02.444Z,1000.93
2019-03-21T03:43:02.419Z,1000.99
2019-03-21T03:44:02.418Z,1000.99
2019-03-21T03:45:02.451Z,1000.96
2019-03-21T03:46:02.391Z,1001.01
2019-03-21T03:47:02.511Z,1001.03
2019-03-21T03:48:02.369Z,1001.01
2019-03-21T03:49:02.921Z,1001.02
2019-03-21T03:50:02.365Z,1001.02
2019-03-21T03:51:02.396Z,1000.98
2019-03-21T03:52:02.326Z,1000.94
2019-03-21T03:53:02.315Z,1001.03
2019-03-21T03:54:02.316Z,1001.06
2019-03-21T03:55:02.299Z,1001.07
2019-03-21T03:56:02.297Z,1001.05
2019-03-21T03:57:02.278Z,1001.08
2019-03-21T03:58:02.282Z,1001.16
2019-03-21T03:59:02.253Z,1001.15
2019-03-21T04:00:02.235Z,1001.18
2019-03-21T04:01:02.221Z,1001.24
2019-03-21T04:02:02.275Z,1001.21
2019-03-21T04:03:02.210Z,1001.21
2019-03-21T04:04:02.205Z,1001.25
2019-03-21T04:05:02.289Z,1001.18
2019-03-21T04:06:02.191Z,1001.17
2019-03-21T04:07:15.480Z,1001.16
2019-03-21T04:08:02.156Z,1001.19
2019-03-21T04:09:02.184Z,1001.18
2019-03-21T04:10:02.205Z,1001.22
2019-03-21T04:11:02.961Z,1001.15
2019-03-21T04:12:02.153Z,1001.17
2019-03-21T04:13:02.127Z,1001.14
2019-03-21T04:14:02.087Z,1001.16
2019-03-21T04:15:02.077Z,1001.23
2019-03-21T04:16:02.068Z,1001.21
2019-03-21T04:17:02.055Z,1001.17
2019-03-21T04:18:02.041Z,1001.17
2019-03-21T04:19:02.077Z,1001.28
2019-03-21T04:20:02.021Z,1001.21
2019-03-21T04:21:02.019Z,1001.24
2019-03-21T04:22:02.002Z,1001.29
2019-03-21T04:23:02.000Z,1001.24
2019-03-21T04:24:01.982Z,1001.25
2019-03-21T04:25:02.091Z,1001.23
2019-03-21T04:26:01.966Z,1001.25
2019-03-21T04:27:01.945Z,1001.26
2019-03-21T04:28:01.939Z,1001.23
2019-03-21T04:29:01.929Z,1001.21
2019-03-21T04:30:01.958Z,1001.16
2019-03-21T04:31:01.913Z,1001.19
2019-03-21T04:32:01.902Z,1001.17
2019-03-21T04:33:01.966Z,1001.13
2019-03-21T04:34:01.914Z,1001.18
2019-03-21T04:35:01.869Z,1001.14
2019-03-21T04:36:01.872Z,1001.20
2019-03-21T04:37:01.847Z,1001.18
2019-03-21T04:38:14.307Z,1001.21
2019-03-21T04:39:01.835Z,1001.26
2019-03-21T04:40:01.844Z,1001.25
2019-03-21T04:41:01.813Z,1001.26
2019-03-21T04:42:01.837Z,1001.28
2019-03-21T04:43:01.793Z,1001.28
2019-03-21T04:44:01.764Z,1001.26
2019-03-21T04:45:01.759Z,1001.30
2019-03-21T04:46:03.688Z,1001.31
2019-03-21T04:47:01.732Z,1001.34
2019-03-21T04:48:01.747Z,1001.35
2019-03-21T04:49:01.711Z,1001.34
2019-03-21T04:50:01.697Z,1001.37
2019-03-21T04:51:01.686Z,1001.41
2019-03-21T04:52:01.682Z,1001.42
2019-03-21T04:53:01.709Z,1001.37
2019-03-21T04:54:01.706Z,1001.36
2019-03-21T04:55:01.715Z,1001.40
2019-03-21T04:56:01.640Z,1001.50
2019-03-21T04:57:01.648Z,1001.40
2019-03-21T04:58:01.612Z,1001.47
2019-03-21T04:59:01.626Z,1001.44
2019-03-21T05:00:03.692Z,1001.41
2019-03-21T05:01:01.606Z,1001.41
2019-03-21T05:02:01.572Z,1001.54
2019-03-21T05:03:01.570Z,1001.47
2019-03-21T05:04:01.575Z,1001.51
2019-03-21T05:05:01.670Z,1001.51
2019-03-21T05:06:01.527Z,1001.49
2019-03-21T05:07:01.517Z,1001.54
2019-03-21T05:08:01.507Z,1001.53
2019-03-21T05:09:14.042Z,1001.53
2019-03-21T05:10:01.493Z,1001.61
2019-03-21T05:11:01.476Z,1001.64
2019-03-21T05:12:01.467Z,1001.67
2019-03-21T05:13:01.450Z,1001.67
2019-03-21T05:14:01.463Z,1001.70
2019-03-21T05:15:01.478Z,1001.66
2019-03-21T05:16:01.429Z,1001.69
2019-03-21T05:17:01.514Z,1001.70
2019-03-21T05:18:01.481Z,1001.68
2019-03-21T05:19:01.389Z,1001.73
2019-03-21T05:20:01.392Z,1001.69
2019-03-21T05:21:01.381Z,1001.75
2019-03-21T05:22:01.359Z,1001.82
2019-03-21T05:23:01.342Z,1001.83
2019-03-21T05:24:01.328Z,1001.74
2019-03-21T05:25:01.317Z,1001.82
2019-03-21T05:26:03.830Z,1001.85
2019-03-21T05:27:01.302Z,1001.88
2019-03-21T05:28:01.291Z,1001.87
2019-03-21T05:29:01.275Z,1001.86
2019-03-21T05:30:01.267Z,1001.90
2019-03-21T05:31:01.262Z,1001.85
2019-03-21T05:32:03.671Z,1001.86
2019-03-21T05:33:01.231Z,1001.88
2019-03-21T05:34:01.219Z,1001.88
2019-03-21T05:35:01.207Z,1001.81
2019-03-21T05:36:01.202Z,1001.85
2019-03-21T05:37:01.193Z,1001.86
2019-03-21T05:38:01.190Z,1001.86
2019-03-21T05:39:01.164Z,1001.86
2019-03-21T05:40:13.770Z,1001.85
2019-03-21T05:41:02.056Z,1001.87
2019-03-21T05:42:02.030Z,1001.90
2019-03-21T05:43:01.185Z,1001.86
2019-03-21T05:44:01.124Z,1001.85
2019-03-21T05:45:01.102Z,1001.83
2019-03-21T05:46:01.092Z,1001.90
2019-03-21T05:47:01.080Z,1001.85
2019-03-21T05:48:01.072Z,1001.82
2019-03-21T05:49:01.106Z,1001.78
2019-03-21T05:50:01.043Z,1001.79
2019-03-21T05:51:01.043Z,1001.75
2019-03-21T05:52:02.023Z,1001.77
2019-03-21T05:53:01.015Z,1001.75
2019-03-21T05:54:01.007Z,1001.81
2019-03-21T05:55:01.046Z,1001.86
2019-03-21T05:56:01.001Z,1001.77
2019-03-21T05:57:00.974Z,1001.83
2019-03-21T05:58:00.969Z,1001.89
2019-03-21T05:59:00.972Z,1001.95
2019-03-21T06:00:00.949Z,1001.95
2019-03-21T06:01:00.968Z,1001.98
2019-03-21T06:02:01.053Z,1001.94
2019-03-21T06:03:00.951Z,1001.96
2019-03-21T06:04:01.495Z,1001.98
2019-03-21T06:05:00.878Z,1002.04
2019-03-21T06:06:00.870Z,1001.99
2019-03-21T06:07:00.863Z,1002.01
2019-03-21T06:08:00.843Z,1002.00
2019-03-21T06:09:00.833Z,1002.03
2019-03-21T06:10:00.828Z,1002.12
2019-03-21T06:11:13.560Z,1002.09
2019-03-21T06:12:00.813Z,1002.10
2019-03-21T06:13:00.809Z,1002.13
2019-03-21T06:14:00.782Z,1002.10
2019-03-21T06:15:03.574Z,1002.16
2019-03-21T06:16:00.773Z,1002.11
2019-03-21T06:17:00.833Z,1002.14
2019-03-21T06:18:00.743Z,1002.15
2019-03-21T06:19:00.732Z,1002.13
2019-03-21T06:20:00.728Z,1002.20
2019-03-21T06:21:00.716Z,1002.19
2019-03-21T06:22:00.703Z,1002.13
2019-03-21T06:23:00.728Z,1002.15
2019-03-21T06:24:00.669Z,1002.15
2019-03-21T06:25:00.740Z,1002.18
2019-03-21T06:26:01.695Z,1002.21
2019-03-21T06:27:00.661Z,1002.21
2019-03-21T06:28:00.621Z,1002.23
2019-03-21T06:29:00.616Z,1002.18
2019-03-21T06:30:00.614Z,1002.19
2019-03-21T06:31:00.599Z,1002.12
2019-03-21T06:32:00.576Z,1002.08
2019-03-21T06:33:00.617Z,1002.06
2019-03-21T06:34:00.579Z,1002.07
2019-03-21T06:35:00.813Z,1002.10
2019-03-21T06:36:01.544Z,1002.16
2019-03-21T06:37:00.548Z,1002.15
2019-03-21T06:38:00.510Z,1002.15
2019-03-21T06:39:00.536Z,1002.17
2019-03-21T06:40:00.494Z,1002.18
2019-03-21T06:41:00.490Z,1002.13
2019-03-21T06:42:13.219Z,1002.10
2019-03-21T06:43:00.467Z,1002.17
2019-03-21T06:44:00.467Z,1002.14
2019-03-21T06:45:00.505Z,1002.14
2019-03-21T06:46:00.693Z,1002.04
2019-03-21T06:47:00.430Z,1002.09
2019-03-21T06:48:00.541Z,1002.15
2019-03-21T06:49:00.426Z,1002.15
2019-03-21T06:50:00.589Z,1002.15
2019-03-21T06:51:00.383Z,1002.09
2019-03-21T06:52:00.360Z,1002.03
2019-03-21T06:53:00.349Z,1002.20
2019-03-21T06:54:00.342Z,1002.18
2019-03-21T06:55:00.353Z,1002.22
2019-03-21T06:56:00.324Z,1002.25
2019-03-21T06:57:02.451Z,1002.19
2019-03-21T06:58:00.304Z,1002.24
2019-03-21T06:59:00.340Z,1002.21
2019-03-21T07:00:00.419Z,1002.15
2019-03-21T07:01:00.277Z,1002.13
2019-03-21T07:02:00.266Z,1002.14
2019-03-21T07:03:00.269Z,1002.16
2019-03-21T07:04:07.193Z,1002.25
2019-03-21T07:05:01.239Z,1002.26
2019-03-21T07:06:00.219Z,1002.30
2019-03-21T07:07:07.988Z,1002.25
2019-03-21T07:08:01.204Z,1002.27
2019-03-21T07:09:01.672Z,1002.28
2019-03-21T07:10:00.346Z,1002.28
2019-03-21T07:11:00.159Z,1002.26
2019-03-21T07:12:00.244Z,1002.30
2019-03-21T07:13:11.769Z,1002.21
2019-03-21T07:14:00.126Z,1002.19
2019-03-21T07:15:00.251Z,1002.28
2019-03-21T07:16:00.100Z,1002.28
2019-03-21T07:17:00.884Z,1002.27
2019-03-21T07:18:00.094Z,1002.19
2019-03-21T07:19:00.069Z,1002.11
2019-03-21T07:20:00.116Z,1002.14
2019-03-21T07:21:01.236Z,1002.19
2019-03-21T07:22:00.114Z,1002.21
2019-03-21T07:23:00.072Z,1002.34
2019-03-21T07:24:00.061Z,1002.30
2019-03-21T07:25:00.034Z,1002.27
2019-03-21T07:25:59.991Z,1002.27
2019-03-21T07:26:59.979Z,1002.22
2019-03-21T07:27:59.968Z,1002.20
2019-03-21T07:28:59.995Z,1002.23
2019-03-21T07:30:00.022Z,1002.26
2019-03-21T07:30:59.947Z,1002.15
2019-03-21T07:31:59.924Z,1002.24
2019-03-21T07:32:59.915Z,1002.23
2019-03-21T07:33:59.950Z,1002.26
2019-03-21T07:34:59.922Z,1002.24
2019-03-21T07:35:59.886Z,1002.28
2019-03-21T07:36:59.872Z,1002.33
2019-03-21T07:37:59.864Z,1002.38
2019-03-21T07:38:59.862Z,1002.42
2019-03-21T07:39:59.852Z,1002.44
2019-03-21T07:41:00.110Z,1002.34
2019-03-21T07:42:01.191Z,1002.38
2019-03-21T07:43:00.631Z,1002.37
2019-03-21T07:44:12.971Z,1002.47
2019-03-21T07:44:59.855Z,1002.50
2019-03-21T07:45:59.969Z,1002.47
2019-03-21T07:47:11.779Z,1002.39
2019-03-21T07:48:00.775Z,1002.38
2019-03-21T07:49:00.635Z,1002.38
2019-03-21T07:49:59.763Z,1002.35
2019-03-21T07:51:01.373Z,1002.39
2019-03-21T07:52:02.030Z,1002.42
2019-03-21T07:53:00.612Z,1002.35
2019-03-21T07:53:59.956Z,1002.31
2019-03-21T07:54:59.791Z,1002.41
2019-03-21T07:55:59.752Z,1002.42
2019-03-21T07:57:00.700Z,1002.47
2019-03-21T07:57:59.783Z,1002.50
2019-03-21T07:58:59.652Z,1002.43
2019-03-21T07:59:59.749Z,1002.44
2019-03-21T08:00:59.995Z,1002.46
2019-03-21T08:01:59.840Z,1002.47
2019-03-21T08:02:59.939Z,1002.53
2019-03-21T08:04:02.749Z,1002.51
2019-03-21T08:05:00.329Z,1002.55
2019-03-21T08:05:59.605Z,1002.57
2019-03-21T08:06:59.598Z,1002.62
2019-03-21T08:07:59.542Z,1002.62
2019-03-21T08:08:59.616Z,1002.57
2019-03-21T08:09:59.529Z,1002.57
2019-03-21T08:10:59.617Z,1002.57
2019-03-21T08:12:00.038Z,1002.60
2019-03-21T08:12:59.599Z,1002.64
2019-03-21T08:13:59.485Z,1002.61
2019-03-21T08:15:12.162Z,1002.55
2019-03-21T08:15:59.449Z,1002.50
2019-03-21T08:16:59.455Z,1002.52
2019-03-21T08:17:59.486Z,1002.51
2019-03-21T08:18:59.491Z,1002.55
2019-03-21T08:19:59.439Z,1002.49
2019-03-21T08:21:00.232Z,1002.42
2019-03-21T08:21:59.767Z,1002.43
2019-03-21T08:22:59.485Z,1002.43
2019-03-21T08:24:00.164Z,1002.48
2019-03-21T08:25:00.409Z,1002.44
2019-03-21T08:25:59.792Z,1002.44
2019-03-21T08:26:59.362Z,1002.47
2019-03-21T08:27:59.334Z,1002.38
2019-03-21T08:28:59.311Z,1002.39
2019-03-21T08:29:59.427Z,1002.47
2019-03-21T08:30:59.295Z,1002.52
2019-03-21T08:31:59.862Z,1002.52
2019-03-21T08:33:02.909Z,1002.51
2019-03-21T08:34:00.282Z,1002.47
2019-03-21T08:34:59.352Z,1002.38
2019-03-21T08:35:59.307Z,1002.36
2019-03-21T08:36:59.262Z,1002.45
2019-03-21T08:37:59.227Z,1002.44
2019-03-21T08:38:59.211Z,1002.45
2019-03-21T08:39:59.219Z,1002.44
2019-03-21T08:40:59.188Z,1002.41
2019-03-21T08:41:59.212Z,1002.48
2019-03-21T08:42:59.175Z,1002.47
2019-03-21T08:43:59.210Z,1002.42
2019-03-21T08:44:59.398Z,1002.45
2019-03-21T08:46:11.911Z,1002.41
2019-03-21T08:46:59.124Z,1002.41
2019-03-21T08:47:59.229Z,1002.47
2019-03-21T08:48:59.260Z,1002.53
2019-03-21T08:49:59.095Z,1002.59
2019-03-21T08:51:07.775Z,1002.51
2019-03-21T08:52:00.073Z,1002.53
2019-03-21T08:52:59.078Z,1002.60
2019-03-21T08:53:59.255Z,1002.58
2019-03-21T08:54:59.046Z,1002.53
2019-03-21T08:55:59.017Z,1002.58
2019-03-21T08:56:59.016Z,1002.56
2019-03-21T08:57:59.019Z,1002.56
2019-03-21T08:58:58.982Z,1002.59
2019-03-21T08:59:59.008Z,1002.50
2019-03-21T09:00:59.164Z,1002.54
2019-03-21T09:01:59.041Z,1002.52
2019-03-21T09:02:59.099Z,1002.53
2019-03-21T09:03:59.849Z,1002.50
2019-03-21T09:04:59.898Z,1002.60
2019-03-21T09:05:58.958Z,1002.56
2019-03-21T09:06:58.930Z,1002.57
2019-03-21T09:07:58.948Z,1002.49
2019-03-21T09:08:58.883Z,1002.48
2019-03-21T09:09:58.885Z,1002.45
2019-03-21T09:10:58.893Z,1002.45
2019-03-21T09:11:58.852Z,1002.41
2019-03-21T09:12:58.881Z,1002.45
2019-03-21T09:13:58.889Z,1002.48
2019-03-21T09:14:58.854Z,1002.44
2019-03-21T09:15:58.857Z,1002.40
2019-03-21T09:17:11.251Z,1002.48
2019-03-21T09:17:59.049Z,1002.45
2019-03-21T09:18:58.761Z,1002.43
2019-03-21T09:19:58.765Z,1002.42
2019-03-21T09:20:58.745Z,1002.42
2019-03-21T09:22:00.381Z,1002.35
2019-03-21T09:22:59.740Z,1002.36
2019-03-21T09:23:58.717Z,1002.40
2019-03-21T09:24:58.725Z,1002.40
2019-03-21T09:25:58.694Z,1002.35
2019-03-21T09:26:58.671Z,1002.35
2019-03-21T09:28:02.768Z,1002.39
2019-03-21T09:28:58.655Z,1002.40
2019-03-21T09:29:58.744Z,1002.44
2019-03-21T09:30:58.668Z,1002.44
2019-03-21T09:31:58.613Z,1002.45
2019-03-21T09:32:58.619Z,1002.46
2019-03-21T09:33:58.595Z,1002.45
2019-03-21T09:34:58.581Z,1002.52
2019-03-21T09:36:07.423Z,1002.51
2019-03-21T09:36:58.660Z,1002.51
2019-03-21T09:37:58.640Z,1002.45
2019-03-21T09:38:59.990Z,1002.40
2019-03-21T09:39:58.869Z,1002.37
2019-03-21T09:40:58.562Z,1002.38
2019-03-21T09:42:06.304Z,1002.34
2019-03-21T09:42:58.693Z,1002.38
2019-03-21T09:43:58.680Z,1002.47
2019-03-21T09:44:58.577Z,1002.37
2019-03-21T09:45:59.283Z,1002.38
2019-03-21T09:48:10.617Z,1002.46
2019-03-21T09:49:09.099Z,1002.40
2019-03-21T09:50:08.232Z,1002.34
2019-03-21T09:51:09.231Z,1002.39
2019-03-21T09:52:08.231Z,1002.40
2019-03-21T09:53:08.278Z,1002.40
2019-03-21T09:54:10.960Z,1002.38
2019-03-21T09:55:08.260Z,1002.43
2019-03-21T09:56:08.143Z,1002.45
2019-03-21T09:57:08.135Z,1002.46
2019-03-21T09:58:08.156Z,1002.49
2019-03-21T09:59:08.114Z,1002.51
2019-03-21T10:00:08.104Z,1002.40
2019-03-21T10:01:08.091Z,1002.43
2019-03-21T10:02:08.105Z,1002.44
2019-03-21T10:03:08.129Z,1002.40
2019-03-21T10:04:08.116Z,1002.42
2019-03-21T10:05:08.048Z,1002.44
2019-03-21T10:06:08.031Z,1002.43
2019-03-21T10:07:08.107Z,1002.45
2019-03-21T10:08:08.013Z,1002.40
2019-03-21T10:09:08.091Z,1002.37
2019-03-21T10:10:07.992Z,1002.41
2019-03-21T10:11:08.013Z,1002.38
2019-03-21T10:12:07.975Z,1002.32
2019-03-21T10:13:07.962Z,1002.32
2019-03-21T10:14:07.951Z,1002.30
2019-03-21T10:15:08.907Z,1002.29
2019-03-21T10:16:08.000Z,1002.30
2019-03-21T10:17:07.915Z,1002.21
2019-03-21T10:18:14.926Z,1002.25
2019-03-21T10:19:07.896Z,1002.23
2019-03-21T10:20:07.998Z,1002.13
2019-03-21T10:21:07.958Z,1002.14
2019-03-21T10:22:07.989Z,1002.12
2019-03-21T10:23:07.844Z,1002.06
2019-03-21T10:24:07.843Z,1002.05
2019-03-21T10:25:07.830Z,1002.00
2019-03-21T10:26:07.867Z,1002.00
2019-03-21T10:27:09.129Z,1002.04
2019-03-21T10:28:07.799Z,1002.01
2019-03-21T10:29:07.802Z,1002.00
2019-03-21T10:30:07.774Z,1002.03
2019-03-21T10:31:09.232Z,1002.05
2019-03-21T10:32:14.087Z,1002.06
2019-03-21T10:33:09.100Z,1002.13
2019-03-21T10:34:07.864Z,1002.06
2019-03-21T10:35:07.734Z,1002.13
2019-03-21T10:36:07.731Z,1002.08
2019-03-21T10:37:07.728Z,1002.15
2019-03-21T10:38:07.693Z,1002.15
2019-03-21T10:39:07.727Z,1002.16
2019-03-21T10:40:07.694Z,1002.12
2019-03-21T10:41:07.713Z,1002.10
2019-03-21T10:42:08.640Z,1002.16
2019-03-21T10:43:10.196Z,1002.09
2019-03-21T10:44:07.645Z,1002.11
2019-03-21T10:45:07.716Z,1002.04
2019-03-21T10:46:07.645Z,1002.05
2019-03-21T10:47:07.690Z,1002.04
2019-03-21T10:48:07.614Z,1002.04
2019-03-21T10:49:18.907Z,1002.02
2019-03-21T10:50:07.559Z,1001.98
2019-03-21T10:51:07.545Z,1001.99
2019-03-21T10:52:07.585Z,1002.02
2019-03-21T10:53:07.681Z,1002.03
2019-03-21T10:54:07.500Z,1001.95
2019-03-21T10:55:07.501Z,1001.94
2019-03-21T10:56:07.526Z,1001.98
2019-03-21T10:57:07.551Z,1001.98
2019-03-21T10:58:07.469Z,1002.00
2019-03-21T10:59:07.492Z,1001.97
2019-03-21T11:00:08.193Z,1001.97
2019-03-21T11:01:07.442Z,1001.92
2019-03-21T11:02:07.764Z,1001.93
2019-03-21T11:03:07.522Z,1001.94
2019-03-21T11:04:07.407Z,1001.87
2019-03-21T11:05:07.572Z,1001.89
2019-03-21T11:06:09.082Z,1001.90
2019-03-21T11:08:17.952Z,1001.80
2019-03-21T11:09:27.827Z,1001.81
2019-03-21T11:10:19.324Z,1001.84
2019-03-21T11:11:31.591Z,1001.83
2019-03-21T11:12:19.799Z,1001.79
2019-03-21T11:13:22.282Z,1001.82
2019-03-21T11:14:18.030Z,1001.81
2019-03-21T11:15:17.995Z,1001.80
2019-03-21T11:16:18.192Z,1001.78
2019-03-21T11:17:19.244Z,1001.80
2019-03-21T11:18:17.895Z,1001.81
2019-03-21T11:19:18.997Z,1001.77
2019-03-21T11:20:18.230Z,1001.83
2019-03-21T11:21:17.854Z,1001.80
2019-03-21T11:22:17.808Z,1001.84
2019-03-21T11:23:17.786Z,1001.81
2019-03-21T11:24:17.847Z,1001.84
2019-03-21T11:25:17.859Z,1001.76
2019-03-21T11:26:17.767Z,1001.81
2019-03-21T11:27:17.773Z,1001.78
2019-03-21T11:28:17.922Z,1001.83
2019-03-21T11:29:17.755Z,1001.78
2019-03-21T11:30:17.704Z,1001.74
2019-03-21T11:31:17.695Z,1001.73
2019-03-21T11:32:17.681Z,1001.70
2019-03-21T11:33:17.675Z,1001.74
2019-03-21T11:34:17.694Z,1001.74
2019-03-21T11:35:17.721Z,1001.79
2019-03-21T11:36:17.639Z,1001.69
2019-03-21T11:37:17.630Z,1001.80
2019-03-21T11:38:17.632Z,1001.78
2019-03-21T11:39:17.607Z,1001.70
2019-03-21T11:40:32.945Z,1001.67
2019-03-21T11:41:17.669Z,1001.69
2019-03-21T11:42:17.588Z,1001.73
2019-03-21T11:43:17.627Z,1001.67
2019-03-21T11:44:17.617Z,1001.68
2019-03-21T11:45:17.555Z,1001.70
2019-03-21T11:46:17.536Z,1001.65
2019-03-21T11:47:17.552Z,1001.65
2019-03-21T11:48:17.574Z,1001.70
2019-03-21T11:49:17.514Z,1001.69
2019-03-21T11:50:17.878Z,1001.67
2019-03-21T11:51:17.686Z,1001.62
2019-03-21T11:52:18.422Z,1001.61
2019-03-21T11:53:17.558Z,1001.63
2019-03-21T11:54:18.530Z,1001.60
2019-03-21T11:55:17.488Z,1001.53
2019-03-21T11:56:17.448Z,1001.51
2019-03-21T11:57:17.450Z,1001.55
2019-03-21T11:58:17.896Z,1001.53
2019-03-21T11:59:17.390Z,1001.51
2019-03-21T12:00:18.430Z,1001.55
2019-03-21T12:01:17.460Z,1001.51
2019-03-21T12:02:26.632Z,1001.45
2019-03-21T12:03:18.353Z,1001.48
2019-03-21T12:04:17.364Z,1001.46
2019-03-21T12:05:17.339Z,1001.43
2019-03-21T12:06:17.320Z,1001.43
2019-03-21T12:07:17.312Z,1001.44
2019-03-21T12:08:17.356Z,1001.43
2019-03-21T12:09:17.322Z,1001.41